Time;durP1;ratioP1;P1;durP2;ratioP2;P2;SDS_P1;SDS_P2;PMS_P1;PMS_P2;Temp;Humidity;BMP_temperature;BMP_pressure;BME280_temperature;BME280_humidity;BME280_pressure;Samples;Min_cycle;Max_cycle;Signal;HPM_P1;HPM_P2
2022/11/18 00:00:57;;;;;;;15.18;13.75;;;;;;;;;;5064628;28;20055;-59
2022/11/18 00:03:23;;;;;;;14.43;13.02;;;;;;;;;;5068478;28;20411;-59
2022/11/18 00:05:55;;;;;;;17.65;15.25;;;;;;;;;;5069728;28;20090;-59
2022/11/18 00:08:21;;;;;;;15.85;14.35;;;;;;;;;;5068956;28;20053;-58
2022/11/18 00:10:48;;;;;;;17.35;15.48;;;;;;;;;;5069000;28;20044;-59
2022/11/18 00:16:09;;;;;;;17.63;15.40;;;;;;;;;;5069239;28;20048;-59
2022/11/18 00:18:36;;;;;;;14.85;13.43;;;;;;;;;;5068426;28;20462;-58
2022/11/18 00:21:09;;;;;;;14.82;13.32;;;;;;;;;;5068529;28;20051;-59
2022/11/18 00:23:35;;;;;;;14.98;13.57;;;;;;;;;;5068665;28;20063;-59
2022/11/18 00:26:03;;;;;;;16.20;14.65;;;;;;;;;;5067748;28;20470;-59
2022/11/18 00:28:29;;;;;;;17.02;14.68;;;;;;;;;;5067523;28;20517;-59
2022/11/18 00:31:00;;;;;;;15.75;14.25;;;;;;;;;;5067310;28;20087;-59
2022/11/18 00:33:26;;;;;;;15.45;13.90;;;;;;;;;;5068044;28;20446;-59
2022/11/18 00:35:53;;;;;;;17.25;15.45;;;;;;;;;;5067810;28;20067;-59
2022/11/18 00:38:19;;;;;;;21.52;17.10;;;;;;;;;;5067767;28;20059;-59
2022/11/18 00:40:45;;;;;;;16.35;14.75;;;;;;;;;;5068073;28;20037;-59
2022/11/18 00:43:11;;;;;;;16.13;14.43;;;;;;;;;;5067424;28;20044;-59
2022/11/18 00:45:37;;;;;;;18.33;16.38;;;;;;;;;;5067461;28;20130;-59
2022/11/18 00:48:03;;;;;;;18.90;14.88;;;;;;;;;;5067646;28;20032;-59
2022/11/18 00:50:29;;;;;;;16.92;15.30;;;;;;;;;;5067143;28;20873;-59
2022/11/18 00:52:55;;;;;;;14.52;13.23;;;;;;;;;;5065984;28;20051;-59
2022/11/18 00:55:21;;;;;;;15.50;13.38;;;;;;;;;;5067200;28;20041;-59
2022/11/18 00:57:47;;;;;;;14.88;13.38;;;;;;;;;;5067944;28;20395;-59
2022/11/18 01:00:13;;;;;;;15.98;14.15;;;;;;;;;;5067297;28;20041;-59
2022/11/18 01:02:39;;;;;;;13.82;12.38;;;;;;;;;;5067155;28;20505;-59
2022/11/18 01:05:05;;;;;;;15.75;14.00;;;;;;;;;;5068008;28;20127;-59
2022/11/18 01:07:31;;;;;;;14.05;12.75;;;;;;;;;;5066881;28;20487;-59
2022/11/18 01:09:57;;;;;;;15.57;13.98;;;;;;;;;;5067002;28;20057;-59
2022/11/18 01:15:08;;;;;;;15.10;13.60;;;;;;;;;;5067229;28;20056;-59
2022/11/18 01:17:34;;;;;;;15.15;13.55;;;;;;;;;;5067233;28;20048;-60
2022/11/18 01:20:00;;;;;;;14.90;13.40;;;;;;;;;;5067054;28;20771;-59
2022/11/18 01:22:26;;;;;;;14.25;12.85;;;;;;;;;;5066661;28;20045;-59
2022/11/18 01:24:52;;;;;;;15.20;12.68;;;;;;;;;;5066940;28;20107;-59
2022/11/18 01:27:18;;;;;;;12.77;11.48;;;;;;;;;;5067165;28;20048;-59
2022/11/18 01:29:44;;;;;;;12.50;11.20;;;;;;;;;;5067024;28;20053;-59
2022/11/18 01:32:10;;;;;;;14.00;12.50;;;;;;;;;;5066369;28;20131;-59
2022/11/18 01:34:36;;;;;;;12.30;11.10;;;;;;;;;;5066603;28;20040;-59
2022/11/18 01:37:02;;;;;;;11.98;10.68;;;;;;;;;;5066641;28;20488;-59
2022/11/18 01:39:28;;;;;;;12.02;10.80;;;;;;;;;;5066280;28;20059;-59
2022/11/18 01:41:54;;;;;;;12.65;11.35;;;;;;;;;;5066179;28;20040;-59
2022/11/18 01:44:39;;;;;;;13.73;12.30;;;;;;;;;;5066999;28;20434;-59
2022/11/18 01:47:05;;;;;;;13.82;12.43;;;;;;;;;;5066855;28;20480;-59
2022/11/18 01:49:31;;;;;;;16.63;13.85;;;;;;;;;;5065936;28;20513;-59
2022/11/18 01:51:57;;;;;;;14.65;12.90;;;;;;;;;;5065860;28;20510;-59
2022/11/18 01:54:30;;;;;;;17.00;14.30;;;;;;;;;;5066077;28;20056;-60
2022/11/18 01:56:59;;;;;;;21.45;16.95;;;;;;;;;;5065794;28;20106;-59
2022/11/18 01:59:27;;;;;;;20.05;16.10;;;;;;;;;;5065641;28;20056;-59
2022/11/18 02:01:54;;;;;;;23.73;17.90;;;;;;;;;;5066047;28;20384;-60
2022/11/18 02:04:21;;;;;;;25.42;19.15;;;;;;;;;;5066010;28;20151;-59
2022/11/18 02:06:47;;;;;;;32.42;23.77;;;;;;;;;;5066200;28;20127;-59
2022/11/18 02:09:15;;;;;;;27.20;20.45;;;;;;;;;;5065699;28;20049;-59
2022/11/18 02:11:50;;;;;;;30.15;23.95;;;;;;;;;;5065558;28;20057;-59
2022/11/18 02:14:17;;;;;;;35.47;23.42;;;;;;;;;;5065327;28;20541;-59
2022/11/18 02:17:01;;;;;;;31.05;21.33;;;;;;;;;;5065302;28;20048;-59
2022/11/18 02:19:27;;;;;;;23.85;19.02;;;;;;;;;;5065600;28;20052;-59
2022/11/18 02:21:53;;;;;;;21.85;18.08;;;;;;;;;;5065675;28;20112;-60
2022/11/18 02:24:22;;;;;;;26.23;20.20;;;;;;;;;;5065195;28;20048;-59
2022/11/18 02:26:54;;;;;;;22.90;17.27;;;;;;;;;;5065831;28;20048;-59
2022/11/18 02:29:22;;;;;;;31.90;21.83;;;;;;;;;;5065811;28;20045;-59
2022/11/18 02:32:00;;;;;;;28.85;20.45;;;;;;;;;;5065970;28;20047;-59
2022/11/18 02:34:25;;;;;;;29.13;21.65;;;;;;;;;;5064525;28;20048;-59
2022/11/18 02:36:58;;;;;;;22.27;17.67;;;;;;;;;;5066697;28;20036;-59
2022/11/18 02:39:32;;;;;;;22.90;18.63;;;;;;;;;;5064991;28;20044;-59
2022/11/18 02:41:59;;;;;;;23.75;17.63;;;;;;;;;;5065118;28;20052;-59
2022/11/18 02:44:26;;;;;;;21.63;17.38;;;;;;;;;;5065081;28;20529;-59
2022/11/18 02:46:56;;;;;;;18.77;15.73;;;;;;;;;;5065369;28;20664;-59
2022/11/18 02:49:25;;;;;;;21.83;16.00;;;;;;;;;;5065067;28;20040;-59
2022/11/18 02:51:51;;;;;;;21.90;14.82;;;;;;;;;;5064849;28;20051;-59
2022/11/18 02:54:20;;;;;;;18.33;14.90;;;;;;;;;;5065416;28;20307;-59
2022/11/18 02:56:46;;;;;;;18.30;15.02;;;;;;;;;;5065609;28;20492;-59
2022/11/18 02:59:17;;;;;;;19.52;16.25;;;;;;;;;;5064637;28;20048;-59
2022/11/18 03:01:43;;;;;;;19.10;15.27;;;;;;;;;;5065210;28;20037;-60
2022/11/18 03:04:09;;;;;;;17.65;14.00;;;;;;;;;;5065293;28;20040;-59
2022/11/18 03:06:36;;;;;;;19.13;15.07;;;;;;;;;;5064286;28;20040;-59
2022/11/18 03:09:14;;;;;;;18.42;13.38;;;;;;;;;;5064382;28;20106;-59
2022/11/18 03:12:00;;;;;;;17.58;12.45;;;;;;;;;;5064580;28;20478;-59
2022/11/18 03:14:45;;;;;;;18.48;14.40;;;;;;;;;;5052277;28;20053;-59
2022/11/18 03:17:14;;;;;;;20.20;15.45;;;;;;;;;;5064473;28;20488;-59
2022/11/18 03:19:43;;;;;;;20.02;14.57;;;;;;;;;;5063269;28;20540;-60
2022/11/18 03:22:25;;;;;;;20.95;16.02;;;;;;;;;;5064820;28;20076;-59
2022/11/18 03:24:51;;;;;;;;;;;;;;;;;;5064955;28;20040;-59
2022/11/18 03:27:38;;;;;;;20.90;15.73;;;;;;;;;;5064584;28;20374;-59
2022/11/18 03:30:07;;;;;;;23.75;13.95;;;;;;;;;;5064965;28;20048;-59
2022/11/18 03:32:36;;;;;;;18.02;13.27;;;;;;;;;;5064480;28;20052;-59
2022/11/18 03:35:07;;;;;;;17.95;13.55;;;;;;;;;;5065167;28;20051;-59
2022/11/18 03:37:34;;;;;;;15.98;12.68;;;;;;;;;;5066856;28;20060;-59
2022/11/18 03:40:05;;;;;;;15.63;12.90;;;;;;;;;;5068634;28;20044;-59
2022/11/18 03:42:42;;;;;;;14.60;11.93;;;;;;;;;;5068156;28;20690;-59
2022/11/18 03:45:14;;;;;;;14.05;12.15;;;;;;;;;;5068628;28;20036;-59
2022/11/18 03:47:46;;;;;;;15.63;11.73;;;;;;;;;;5067999;28;20097;-59
2022/11/18 03:50:32;;;;;;;14.90;11.80;;;;;;;;;;5067680;28;20491;-60
2022/11/18 03:52:59;;;;;;;16.08;12.00;;;;;;;;;;5068120;28;20057;-59
2022/11/18 03:55:27;;;;;;;14.45;11.70;;;;;;;;;;5067202;28;20463;-58
2022/11/18 03:57:55;;;;;;;17.88;12.90;;;;;;;;;;5068399;28;20036;-59
2022/11/18 04:00:22;;;;;;;14.77;11.57;;;;;;;;;;5068252;28;20123;-60
2022/11/18 04:02:49;;;;;;;16.13;13.25;;;;;;;;;;5068025;28;20045;-59
2022/11/18 04:05:15;;;;;;;13.93;11.75;;;;;;;;;;5068152;28;20052;-59
2022/11/18 04:07:43;;;;;;;14.98;11.23;;;;;;;;;;5068222;28;20060;-59
2022/11/18 04:10:19;;;;;;;17.10;12.55;;;;;;;;;;5067854;28;20052;-59
2022/11/18 04:12:48;;;;;;;14.93;12.02;;;;;;;;;;5067943;28;20499;-59
2022/11/18 04:15:15;;;;;;;14.52;11.65;;;;;;;;;;5067689;28;20066;-59
2022/11/18 04:17:41;;;;;;;14.60;10.88;;;;;;;;;;5067463;28;20101;-59
2022/11/18 04:20:12;;;;;;;14.23;11.50;;;;;;;;;;5068079;28;20048;-59
2022/11/18 04:22:38;;;;;;;12.40;10.30;;;;;;;;;;5068348;28;20040;-59
2022/11/18 04:25:04;;;;;;;11.48;9.90;;;;;;;;;;5068009;28;20051;-59
2022/11/18 04:27:30;;;;;;;10.88;9.43;;;;;;;;;;5067541;28;20051;-59
2022/11/18 04:29:56;;;;;;;10.68;8.85;;;;;;;;;;5067445;28;20382;-59
2022/11/18 04:32:22;;;;;;;10.25;8.52;;;;;;;;;;5067777;28;20040;-59
2022/11/18 04:34:48;;;;;;;10.63;9.45;;;;;;;;;;5067889;28;20044;-59
2022/11/18 04:37:14;;;;;;;12.63;9.70;;;;;;;;;;5067037;28;20036;-59
2022/11/18 04:39:40;;;;;;;13.00;10.02;;;;;;;;;;5067786;28;20167;-59
2022/11/18 04:42:06;;;;;;;16.52;12.10;;;;;;;;;;5067800;28;20485;-59
2022/11/18 04:44:33;;;;;;;14.25;12.40;;;;;;;;;;5066782;28;20143;-59
2022/11/18 04:47:03;;;;;;;14.25;11.10;;;;;;;;;;5067038;28;20070;-59
2022/11/18 04:49:30;;;;;;;14.80;11.40;;;;;;;;;;5067845;28;20044;-60
2022/11/18 04:51:56;;;;;;;12.07;10.65;;;;;;;;;;5067434;28;20128;-60
2022/11/18 04:54:23;;;;;;;12.20;9.63;;;;;;;;;;5067154;28;20556;-60
2022/11/18 04:56:49;;;;;;;14.35;11.57;;;;;;;;;;5067879;28;20039;-59
2022/11/18 04:59:17;;;;;;;15.30;11.18;;;;;;;;;;5066897;28;20410;-59
2022/11/18 05:01:43;;;;;;;15.20;12.07;;;;;;;;;;5067990;28;20041;-59
2022/11/18 05:04:12;;;;;;;14.63;10.77;;;;;;;;;;5064952;28;20090;-59
2022/11/18 05:06:37;;;;;;;11.35;10.13;;;;;;;;;;5067718;28;20051;-59
2022/11/18 05:09:04;;;;;;;10.68;8.93;;;;;;;;;;5067246;28;20064;-59
2022/11/18 05:14:14;;;;;;;10.43;9.05;;;;;;;;;;5066380;28;20048;-59
2022/11/18 05:16:40;;;;;;;11.93;10.23;;;;;;;;;;5066380;28;20534;-59
2022/11/18 05:19:06;;;;;;;12.07;9.27;;;;;;;;;;5066969;28;20531;-59
2022/11/18 05:21:33;;;;;;;11.93;10.35;;;;;;;;;;5066119;28;20059;-59
2022/11/18 05:24:00;;;;;;;12.57;9.65;;;;;;;;;;5066280;28;20102;-59
2022/11/18 05:26:26;;;;;;;10.77;9.68;;;;;;;;;;5066502;28;20481;-60
2022/11/18 05:28:52;;;;;;;12.52;9.40;;;;;;;;;;5066164;28;20048;-59
2022/11/18 05:31:18;;;;;;;10.45;9.30;;;;;;;;;;5066637;28;20098;-59
2022/11/18 05:33:44;;;;;;;10.73;8.93;;;;;;;;;;5066071;28;20387;-59
2022/11/18 05:36:11;;;;;;;10.27;9.23;;;;;;;;;;5062780;28;20426;-59
2022/11/18 05:38:37;;;;;;;13.00;10.02;;;;;;;;;;5066886;28;20135;-59
2022/11/18 05:41:04;;;;;;;11.70;9.90;;;;;;;;;;5066480;28;20128;-59
2022/11/18 05:43:30;;;;;;;10.68;9.13;;;;;;;;;;5066197;28;20075;-59
2022/11/18 05:45:57;;;;;;;10.55;9.38;;;;;;;;;;5066530;28;20073;-60
2022/11/18 05:48:23;;;;;;;13.35;10.75;;;;;;;;;;5065720;28;20094;-60
2022/11/18 05:50:51;;;;;;;11.82;9.55;;;;;;;;;;5066126;28;20561;-59
2022/11/18 05:53:18;;;;;;;9.73;8.57;;;;;;;;;;5100530;27;20514;-60
2022/11/18 05:55:50;;;;;;;12.23;9.25;;;;;;;;;;5065684;28;20525;-59
2022/11/18 05:58:16;;;;;;;11.98;9.57;;;;;;;;;;5065872;28;20044;-59
2022/11/18 06:00:43;;;;;;;13.05;10.68;;;;;;;;;;5080194;28;20064;-60
2022/11/18 06:03:15;;;;;;;14.82;10.73;;;;;;;;;;5065542;28;20483;-60
2022/11/18 06:05:41;;;;;;;12.52;10.32;;;;;;;;;;5065415;28;20048;-60
2022/11/18 06:08:08;;;;;;;15.20;11.13;;;;;;;;;;5066353;28;20059;-60
2022/11/18 06:10:36;;;;;;;15.32;11.35;;;;;;;;;;5065463;28;20048;-59
2022/11/18 06:13:05;;;;;;;13.25;9.93;;;;;;;;;;5065661;28;20044;-59
2022/11/18 06:15:34;;;;;;;13.80;10.25;;;;;;;;;;5065244;28;20123;-59
2022/11/18 06:18:03;;;;;;;11.88;10.50;;;;;;;;;;5065768;28;20083;-59
2022/11/18 06:20:29;;;;;;;13.68;9.18;;;;;;;;;;5065680;28;20056;-59
2022/11/18 06:22:56;;;;;;;15.43;9.90;;;;;;;;;;5065304;28;20049;-59
2022/11/18 06:25:23;;;;;;;15.05;10.43;;;;;;;;;;5068690;28;20051;-59
2022/11/18 06:27:50;;;;;;;13.23;10.52;;;;;;;;;;5065979;28;20040;-59
2022/11/18 06:30:16;;;;;;;15.93;11.45;;;;;;;;;;5065104;28;20047;-59
2022/11/18 06:32:42;;;;;;;13.13;9.45;;;;;;;;;;5064258;28;20040;-59
2022/11/18 06:35:08;;;;;;;16.08;10.52;;;;;;;;;;5065750;28;20097;-59
2022/11/18 06:37:34;;;;;;;14.00;11.43;;;;;;;;;;5064572;28;20055;-59
2022/11/18 06:40:00;;;;;;;13.82;10.98;;;;;;;;;;5064015;28;20406;-59
2022/11/18 06:45:14;;;;;;;18.25;11.13;;;;;;;;;;5063625;28;20040;-59
2022/11/18 06:47:40;;;;;;;16.25;12.02;;;;;;;;;;5066545;28;20380;-59
2022/11/18 06:50:06;;;;;;;14.90;10.80;;;;;;;;;;5067505;28;20043;-59
2022/11/18 06:52:32;;;;;;;16.45;11.75;;;;;;;;;;5064630;28;20052;-59
2022/11/18 06:54:58;;;;;;;14.05;10.27;;;;;;;;;;5064978;28;20174;-59
2022/11/18 06:57:24;;;;;;;16.73;12.27;;;;;;;;;;5064787;28;20135;-59
2022/11/18 06:59:50;;;;;;;16.75;11.70;;;;;;;;;;5064942;28;20128;-59
2022/11/18 07:02:17;;;;;;;15.45;11.13;;;;;;;;;;5065173;28;20041;-59
2022/11/18 07:04:44;;;;;;;16.98;11.43;;;;;;;;;;5064506;28;20076;-60
2022/11/18 07:07:10;;;;;;;17.85;12.40;;;;;;;;;;5065263;28;20048;-59
2022/11/18 07:09:36;;;;;;;15.93;10.48;;;;;;;;;;5063906;28;20203;-59
2022/11/18 07:12:03;;;;;;;16.52;11.23;;;;;;;;;;5063910;28;20840;-59
2022/11/18 07:14:29;;;;;;;20.30;13.20;;;;;;;;;;5064358;28;20048;-59
2022/11/18 07:16:55;;;;;;;20.15;13.27;;;;;;;;;;5064842;28;20037;-59
2022/11/18 07:19:21;;;;;;;18.25;11.35;;;;;;;;;;5066421;28;20410;-59
2022/11/18 07:21:47;;;;;;;19.17;12.13;;;;;;;;;;5065241;28;20056;-58
2022/11/18 07:24:14;;;;;;;17.60;11.88;;;;;;;;;;5065224;28;20056;-59
2022/11/18 07:26:41;;;;;;;13.68;10.55;;;;;;;;;;5063386;28;20040;-59
2022/11/18 07:29:07;;;;;;;15.55;11.50;;;;;;;;;;5064732;28;20155;-59
2022/11/18 07:31:36;;;;;;;15.40;10.50;;;;;;;;;;5064023;28;20048;-59
2022/11/18 07:34:02;;;;;;;15.73;12.05;;;;;;;;;;5065827;28;20131;-59
2022/11/18 07:36:28;;;;;;;22.05;11.73;;;;;;;;;;5064993;28;20048;-59
2022/11/18 07:38:55;;;;;;;15.45;11.65;;;;;;;;;;5064576;28;20396;-59
2022/11/18 07:41:22;;;;;;;13.20;9.35;;;;;;;;;;5063857;28;20053;-59
2022/11/18 07:43:49;;;;;;;12.88;9.50;;;;;;;;;;5065085;28;20040;-60
2022/11/18 07:46:18;;;;;;;14.40;10.00;;;;;;;;;;5064033;28;20437;-59
2022/11/18 07:48:45;;;;;;;11.27;9.52;;;;;;;;;;5064463;28;20040;-59
2022/11/18 07:51:11;;;;;;;15.70;11.90;;;;;;;;;;5064754;28;20052;-60
2022/11/18 07:53:37;;;;;;;16.00;11.15;;;;;;;;;;5064407;28;20075;-60
2022/11/18 07:56:04;;;;;;;17.00;12.70;;;;;;;;;;5064054;28;20495;-59
2022/11/18 07:58:30;;;;;;;22.15;13.10;;;;;;;;;;5063920;28;20135;-59
2022/11/18 08:00:56;;;;;;;17.23;11.88;;;;;;;;;;5063084;28;20056;-59
2022/11/18 08:03:26;;;;;;;18.55;12.95;;;;;;;;;;5063220;28;20148;-59
2022/11/18 08:05:52;;;;;;;15.40;11.82;;;;;;;;;;5063970;28;20059;-59
2022/11/18 08:08:18;;;;;;;18.33;13.18;;;;;;;;;;5063805;28;20060;-59
2022/11/18 08:10:44;;;;;;;18.00;12.93;;;;;;;;;;5063276;28;20078;-59
2022/11/18 08:13:10;;;;;;;17.27;13.10;;;;;;;;;;5064395;28;20110;-59
2022/11/18 08:15:41;;;;;;;17.48;13.43;;;;;;;;;;5061903;28;20059;-59
2022/11/18 08:18:07;;;;;;;15.77;12.77;;;;;;;;;;5064989;28;20036;-59
2022/11/18 08:20:36;;;;;;;15.82;12.95;;;;;;;;;;5063969;28;20052;-59
2022/11/18 08:23:02;;;;;;;16.00;12.07;;;;;;;;;;5064698;28;20491;-59
2022/11/18 08:25:28;;;;;;;17.20;11.70;;;;;;;;;;5067396;28;20167;-59
2022/11/18 08:27:54;;;;;;;19.20;13.27;;;;;;;;;;5068443;28;20098;-59
2022/11/18 08:30:20;;;;;;;22.98;13.55;;;;;;;;;;5067675;28;20045;-59
2022/11/18 08:32:46;;;;;;;18.27;11.95;;;;;;;;;;5069034;28;20557;-59
2022/11/18 08:35:12;;;;;;;14.52;11.98;;;;;;;;;;5067633;28;20438;-59
2022/11/18 08:37:38;;;;;;;16.42;11.13;;;;;;;;;;5069145;28;20078;-60
2022/11/18 08:40:05;;;;;;;15.30;11.55;;;;;;;;;;5063971;28;20599;-59
2022/11/18 08:42:31;;;;;;;14.98;10.68;;;;;;;;;;5067849;28;20446;-59
2022/11/18 08:44:58;;;;;;;14.20;11.30;;;;;;;;;;5070965;28;20509;-59
2022/11/18 08:47:24;;;;;;;18.20;12.65;;;;;;;;;;5065780;28;20036;-59
2022/11/18 08:49:50;;;;;;;16.52;11.63;;;;;;;;;;5072025;28;20048;-60
2022/11/18 08:52:16;;;;;;;18.27;11.30;;;;;;;;;;5075990;28;20052;-55
2022/11/18 08:54:42;;;;;;;15.80;11.77;;;;;;;;;;5067189;28;20105;-58
2022/11/18 08:57:08;;;;;;;12.93;10.18;;;;;;;;;;5065605;28;20102;-58
2022/11/18 08:59:34;;;;;;;15.98;11.07;;;;;;;;;;5066070;28;20052;-58
2022/11/18 09:02:00;;;;;;;15.10;11.25;;;;;;;;;;5070651;28;20278;-61
2022/11/18 09:04:26;;;;;;;11.88;9.95;;;;;;;;;;5062805;28;20664;-61
2022/11/18 09:06:52;;;;;;;13.75;12.13;;;;;;;;;;5068573;28;20262;-61
2022/11/18 09:09:18;;;;;;;19.80;12.52;;;;;;;;;;5067156;28;20068;-61
2022/11/18 09:11:44;;;;;;;16.25;13.13;;;;;;;;;;5072393;28;20098;-60
2022/11/18 09:14:11;;;;;;;17.35;14.00;;;;;;;;;;5071155;28;20041;-60
2022/11/18 09:16:37;;;;;;;16.05;12.80;;;;;;;;;;5067029;28;20589;-60
2022/11/18 09:19:03;;;;;;;15.95;12.57;;;;;;;;;;5066407;28;20502;-60
2022/11/18 09:21:29;;;;;;;17.50;12.02;;;;;;;;;;5066822;28;20045;-60
2022/11/18 09:23:55;;;;;;;14.52;11.95;;;;;;;;;;5067752;28;20048;-60
2022/11/18 09:26:22;;;;;;;12.20;10.68;;;;;;;;;;5073098;28;20501;-60
2022/11/18 09:28:49;;;;;;;14.60;10.70;;;;;;;;;;5071212;28;20051;-60
2022/11/18 09:31:16;;;;;;;13.13;10.70;;;;;;;;;;5073340;28;20101;-60
2022/11/18 09:33:42;;;;;;;;;;;;;;;;;;5065078;28;19975;-60
2022/11/18 09:36:12;;;;;;;17.10;11.25;;;;;;;;;;5065874;28;19970;-60
2022/11/18 09:38:38;;;;;;;15.23;10.65;;;;;;;;;;5066630;28;20041;-60
2022/11/18 09:41:22;;;;;;;13.90;11.50;;;;;;;;;;5066326;28;20067;-64
2022/11/18 09:44:07;;;;;;;14.48;11.27;;;;;;;;;;5067488;28;20056;-57
2022/11/18 09:46:48;;;;;;;14.57;11.23;;;;;;;;;;5065443;28;20041;-60
2022/11/18 09:49:25;;;;;;;12.00;10.55;;;;;;;;;;5066022;28;20044;-59
2022/11/18 09:51:51;;;;;;;13.50;10.95;;;;;;;;;;5065869;28;20483;-60
2022/11/18 09:54:19;;;;;;;;;;;;;;;;;;5066790;28;20098;-59
2022/11/18 09:56:44;;;;;;;;;;;;;;;;;;5067014;28;19921;-60
2022/11/18 09:59:11;;;;;;;;;;;;;;;;;;5066374;28;20840;-59
2022/11/18 10:01:37;;;;;;;;;;;;;;;;;;5065748;28;19946;-59
2022/11/18 10:04:02;;;;;;;;;;;;;;;;;;5066239;28;20259;-60
2022/11/18 10:06:28;;;;;;;;;;;;;;;;;;5066033;28;19920;-60
2022/11/18 10:08:54;;;;;;;;;;;;;;;;;;5065747;28;19970;-59
2022/11/18 10:11:20;;;;;;;;;;;;;;;;;;5066207;28;20223;-60
2022/11/18 10:13:46;;;;;;;;;;;;;;;;;;5066978;28;19967;-60
2022/11/18 10:16:12;;;;;;;;;;;;;;;;;;5067364;28;19926;-59
2022/11/18 10:18:38;;;;;;;;;;;;;;;;;;5067101;28;20018;-59
2022/11/18 10:21:04;;;;;;;;;;;;;;;;;;5067991;28;19949;-59
2022/11/18 10:23:30;;;;;;;;;;;;;;;;;;5066768;28;19920;-59
2022/11/18 10:25:55;;;;;;;;;;;;;;;;;;5067296;28;20279;-60
2022/11/18 10:28:21;;;;;;;;;;;;;;;;;;5066644;28;19920;-59
2022/11/18 10:30:47;;;;;;;;;;;;;;;;;;5072413;28;20442;-59
2022/11/18 10:33:13;;;;;;;;;;;;;;;;;;5066878;28;19921;-59
2022/11/18 10:35:39;;;;;;;;;;;;;;;;;;5067002;28;19921;-59
2022/11/18 10:38:05;;;;;;;;;;;;;;;;;;5068268;28;19947;-59
2022/11/18 10:40:31;;;;;;;;;;;;;;;;;;5066589;28;20420;-58
2022/11/18 10:42:57;;;;;;;;;;;;;;;;;;5066626;28;20271;-58
2022/11/18 10:45:26;;;;;;;;;;;;;;;;;;5065902;28;20003;-59
2022/11/18 10:47:52;;;;;;;;;;;;;;;;;;5067089;28;19975;-59
2022/11/18 10:50:18;;;;;;;;;;;;;;;;;;5075170;28;19970;-59
2022/11/18 10:52:43;;;;;;;;;;;;;;;;;;5086538;28;19979;-60
2022/11/18 10:55:09;;;;;;;;;;;;;;;;;;5087070;28;19930;-59
2022/11/18 10:57:36;;;;;;;;;;;;;;;;;;5086551;28;19963;-59
2022/11/18 11:00:02;;;;;;;;;;;;;;;;;;5085905;28;19920;-59
2022/11/18 11:02:29;;;;;;;;;;;;;;;;;;5085471;28;19924;-59
2022/11/18 11:04:55;;;;;;;;;;;;;;;;;;5085238;28;20337;-59
2022/11/18 11:07:21;;;;;;;;;;;;;;;;;;5085508;28;19920;-59
2022/11/18 11:09:47;;;;;;;;;;;;;;;;;;5086867;28;19919;-59
2022/11/18 11:12:13;;;;;;;;;;;;;;;;;;5073881;28;19922;-59
2022/11/18 11:14:39;;;;;;;;;;;;;;;;;;5064508;28;19927;-59
2022/11/18 11:17:05;;;;;;;;;;;;;;;;;;5065364;28;19920;-58
2022/11/18 11:19:31;;;;;;;;;;;;;;;;;;5064146;28;19920;-59
2022/11/18 11:21:57;;;;;;;;;;;;;;;;;;5056983;28;19951;-59
2022/11/18 11:24:22;;;;;;;;;;;;;;;;;;5063894;28;19920;-58
2022/11/18 11:26:48;;;;;;;;;;;;;;;;;;5065666;28;19924;-59
2022/11/18 11:29:14;;;;;;;;;;;;;;;;;;5065110;28;19927;-59
2022/11/18 11:31:40;;;;;;;;;;;;;;;;;;5064762;28;20570;-59
2022/11/18 11:34:06;;;;;;;;;;;;;;;;;;5064506;28;19927;-58
2022/11/18 11:36:32;;;;;;;;;;;;;;;;;;5064729;28;19925;-59
2022/11/18 11:38:58;;;;;;;;;;;;;;;;;;5064678;28;19949;-59
2022/11/18 11:41:24;;;;;;;;;;;;;;;;;;5052363;28;20337;-59
2022/11/18 11:43:50;;;;;;;;;;;;;;;;;;5065527;28;19927;-59
2022/11/18 11:46:16;;;;;;;;;;;;;;;;;;5064789;28;19924;-59
2022/11/18 11:48:42;;;;;;;;;;;;;;;;;;5065308;28;20539;-58
2022/11/18 11:51:08;;;;;;;;;;;;;;;;;;5065634;28;20395;-59
2022/11/18 11:53:34;;;;;;;;;;;;;;;;;;5071928;28;19969;-58
2022/11/18 11:56:00;;;;;;;;;;;;;;;;;;5070453;28;19924;-59
2022/11/18 11:58:26;;;;;;;;;;;;;;;;;;5067656;28;19981;-58
2022/11/18 12:00:51;;;;;;;;;;;;;;;;;;5069359;28;20268;-59
2022/11/18 12:03:17;;;;;;;;;;;;;;;;;;5069192;28;19924;-59
2022/11/18 12:05:43;;;;;;;;;;;;;;;;;;5068129;28;19920;-59
2022/11/18 12:08:12;;;;;;;15.55;11.00;;;;;;;;;;5064445;28;20278;-58
2022/11/18 12:11:03;;;;;;;18.35;11.77;;;;;;;;;;5068319;28;20047;-59
2022/11/18 12:13:34;;;;;;;18.40;12.23;;;;;;;;;;5066400;28;20443;-59
2022/11/18 12:16:00;;;;;;;;;;;;;;;;;;5075514;28;20394;-59
2022/11/18 12:18:26;;;;;;;;;;;;;;;;;;5069310;28;19965;-59
2022/11/18 12:20:53;;;;;;;17.38;11.50;;;;;;;;;;5069093;28;19926;-58
2022/11/18 12:23:19;;;;;;;16.88;12.25;;;;;;;;;;5068784;28;20041;-59
2022/11/18 12:25:48;;;;;;;15.73;11.70;;;;;;;;;;5069215;28;20052;-54
2022/11/18 12:28:24;;;;;;;19.05;11.85;;;;;;;;;;5078964;28;20040;-59
2022/11/18 12:30:50;;;;;;;19.83;13.68;;;;;;;;;;5069743;28;20422;-59
2022/11/18 12:33:17;;;;;;;19.65;14.07;;;;;;;;;;5068049;28;20101;-59
2022/11/18 12:35:48;;;;;;;19.95;13.93;;;;;;;;;;5067900;28;20518;-59
2022/11/18 12:38:28;;;;;;;22.45;14.18;;;;;;;;;;5068124;28;20495;-59
2022/11/18 12:40:54;;;;;;;18.25;12.70;;;;;;;;;;5068621;28;20055;-59
2022/11/18 12:46:04;;;;;;;;;;;;;;;;;;5067663;28;19920;-59
2022/11/18 12:48:30;;;;;;;;;;;;;;;;;;5063319;28;19927;-59
2022/11/18 12:50:57;;;;;;;18.27;12.68;;;;;;;;;;5063694;28;19920;-59
2022/11/18 12:53:42;;;;;;;15.35;11.32;;;;;;;;;;5066692;28;20131;-59
2022/11/18 12:56:08;;;;;;;;;;;;;;;;;;5069080;28;20022;-59
2022/11/18 12:58:34;;;;;;;15.00;11.60;;;;;;;;;;5076793;28;20393;-59
2022/11/18 13:01:07;;;;;;;16.25;10.80;;;;;;;;;;5070245;28;20041;-59
2022/11/18 13:03:33;;;;;;;16.08;11.07;;;;;;;;;;5065682;28;20048;-58
2022/11/18 13:06:20;;;;;;;14.63;10.82;;;;;;;;;;5054524;28;20410;-59
2022/11/18 13:08:49;;;;;;;12.88;9.95;;;;;;;;;;5068387;28;20056;-59
2022/11/18 13:19:33;;;;;;;15.45;10.43;;;;;;;;;;5064719;28;20044;-59
2022/11/18 13:24:46;;;;;;;;;;;;;;;;;;5086301;28;20044;-59
2022/11/18 13:27:11;;;;;;;;;;;;;;;;;;5084889;28;19931;-59
2022/11/18 13:29:37;;;;;;;;;;;;;;;;;;5077801;28;19924;-59
2022/11/18 13:32:03;;;;;;;;;;;;;;;;;;5087010;28;19920;-59
2022/11/18 13:34:29;;;;;;;;;;;;;;;;;;5078643;28;19920;-59
2022/11/18 13:36:56;;;;;;;20.65;13.25;;;;;;;;;;5068838;28;20022;-59
2022/11/18 13:39:24;;;;;;;18.33;13.07;;;;;;;;;;5065955;28;20467;-59
2022/11/18 13:42:00;;;;;;;16.67;11.32;;;;;;;;;;5061322;28;20059;-59
2022/11/18 13:44:27;;;;;;;18.45;12.70;;;;;;;;;;5059837;28;20045;-58
2022/11/18 13:46:55;;;;;;;18.02;11.85;;;;;;;;;;5066902;28;20040;-58
2022/11/18 13:49:27;;;;;;;17.77;12.75;;;;;;;;;;5065238;28;20056;-58
2022/11/18 13:51:55;;;;;;;25.40;13.07;;;;;;;;;;5065507;28;20032;-59
2022/11/18 13:54:24;;;;;;;20.00;13.85;;;;;;;;;;5059231;28;20453;-58
2022/11/18 13:56:50;;;;;;;19.20;13.32;;;;;;;;;;5065287;28;20040;-59
2022/11/18 13:59:16;;;;;;;;;;;;;;;;;;5065892;28;20522;-58
2022/11/18 14:01:42;;;;;;;;;;;;;;;;;;5066559;28;20011;-59
2022/11/18 14:04:08;;;;;;;;;;;;;;;;;;5067225;28;20735;-59
2022/11/18 14:06:34;;;;;;;;;;;;;;;;;;5077081;28;19931;-59
2022/11/18 14:09:00;;;;;;;;;;;;;;;;;;5066737;28;19986;-59
2022/11/18 14:11:26;;;;;;;;;;;;;;;;;;5067256;28;20284;-64
2022/11/18 14:13:53;;;;;;;;;;;;;;;;;;5067282;28;20007;-59
2022/11/18 14:16:19;;;;;;;;;;;;;;;;;;5065959;28;20439;-57
2022/11/18 14:18:46;;;;;;;;;;;;;;;;;;5066956;28;20082;-59
2022/11/18 14:21:12;;;;;;;;;;;;;;;;;;5066529;28;20426;-59
2022/11/18 14:23:41;;;;;;;17.20;11.70;;;;;;;;;;5065362;28;20349;-59
2022/11/18 14:26:09;;;;;;;16.05;11.35;;;;;;;;;;5064255;28;20051;-59
2022/11/18 14:28:35;;;;;;;;;;;;;;;;;;5070255;28;19969;-58
2022/11/18 14:31:02;;;;;;;;;;;;;;;;;;5065086;28;19920;-59
2022/11/18 14:33:28;;;;;;;;;;;;;;;;;;5065265;28;19928;-57
2022/11/18 14:35:54;;;;;;;;;;;;;;;;;;5064025;28;19929;-60
2022/11/18 14:38:21;;;;;;;;;;;;;;;;;;5071547;28;20370;-60
2022/11/18 14:40:47;;;;;;;;;;;;;;;;;;5065320;28;20433;-60
2022/11/18 14:43:13;;;;;;;;;;;;;;;;;;5066241;28;19924;-60
2022/11/18 14:45:38;;;;;;;;;;;;;;;;;;5063053;28;20445;-60
2022/11/18 14:48:04;;;;;;;;;;;;;;;;;;5058030;28;19956;-60
2022/11/18 14:50:30;;;;;;;;;;;;;;;;;;5062646;28;19921;-59
2022/11/18 14:52:56;;;;;;;;;;;;;;;;;;5066118;28;19935;-60
2022/11/18 14:55:22;;;;;;;;;;;;;;;;;;5066128;28;19931;-60
2022/11/18 14:57:48;;;;;;;;;;;;;;;;;;5064089;28;19987;-60
2022/11/18 15:00:14;;;;;;;;;;;;;;;;;;5054543;28;20008;-60
2022/11/18 15:02:40;;;;;;;;;;;;;;;;;;5066125;28;20522;-60
2022/11/18 15:05:06;;;;;;;;;;;;;;;;;;5057807;28;19925;-60
2022/11/18 15:07:32;;;;;;;12.20;9.30;;;;;;;;;;5055654;28;20394;-60
2022/11/18 15:09:58;;;;;;;14.10;9.85;;;;;;;;;;5060775;28;20059;-60
2022/11/18 15:12:24;;;;;;;13.40;9.50;;;;;;;;;;5057148;28;20190;-61
2022/11/18 15:14:50;;;;;;;15.70;10.50;;;;;;;;;;5066292;28;20508;-60
2022/11/18 15:17:16;;;;;;;13.43;9.95;;;;;;;;;;5064951;28;20037;-61
2022/11/18 15:19:42;;;;;;;15.55;10.30;;;;;;;;;;5065371;28;20040;-61